»·PEaware :: N4657 KVBG-KHHR

N4657 :: KVBG-KHHR

FLIGHT INFORMATION

Flight Status: Arrived
Operator: Privately registered:
United States
More flights under this callsign
Pilot: Daniel P. (20187)
Aircraft: PILATUS PC-12 EAGLE
(PC12)
More flights by this aircraft type
Origin: KVBG Vandenberg AFB
United States
Destination: KHHR Northrop/Hawthorne Mun
United States
More flights between these airports :: More routes between these airports
Route: +GVO V12 RZS V25 VTU V299 SADDE V107 SMO
File this flight plan on PilotEdge
Remarks:
Altitude:
(Current/Filed)
100ft
Speed:
(Current/Filed)
200kts
Departed: 04-Oct-18 11:03 AM
Arrived: 04-Oct-18 11:52 AM
Distance/Time
Traveled:
122nm/0:48
Distance/Time
To Go:
Arrived

Flight Plot

Page will automatically refresh every two minutes.

Flight plan parsing failed; only flown route is shown


Map Options




Map Legend


Flown Route
Filed Route
Departure Airport
Arrival Airport
Navaid (VOR, NDB)
Fix

Horizontal Profiles

Position Reports

Time Latitude Longitude Heading Altitude Ground
Speed
04-Oct-18 10:36 34.734704 -120.570760 136 341ft 0kts
04-Oct-18 10:37 34.734704 -120.570760 136 341ft 0kts
04-Oct-18 10:38 34.734704 -120.570760 136 341ft 0kts
04-Oct-18 10:39 34.734704 -120.570760 136 341ft 0kts
04-Oct-18 10:40 34.734704 -120.570760 136 341ft 0kts
04-Oct-18 10:41 34.734704 -120.570760 136 341ft 0kts
04-Oct-18 10:42 34.734704 -120.570760 136 341ft 0kts
04-Oct-18 10:43 34.734704 -120.570760 136 341ft 0kts
04-Oct-18 10:44 34.734704 -120.570760 136 341ft 0kts
04-Oct-18 10:45 34.734704 -120.570760 136 341ft 0kts
04-Oct-18 10:46 34.734704 -120.570760 136 341ft 0kts
04-Oct-18 10:47 34.734704 -120.570760 136 341ft 0kts
04-Oct-18 10:48 34.734704 -120.570760 136 341ft 0kts
04-Oct-18 10:49 34.734704 -120.570760 136 341ft 0kts
04-Oct-18 10:50 34.734704 -120.570760 136 341ft 0kts
04-Oct-18 10:51 34.734704 -120.570760 136 341ft 0kts
04-Oct-18 10:52 34.734704 -120.570760 136 341ft 0kts
04-Oct-18 10:53 34.734704 -120.570760 136 341ft 0kts
04-Oct-18 10:54 34.734704 -120.570760 136 341ft 0kts
04-Oct-18 10:55 34.734704 -120.570760 136 341ft 0kts
04-Oct-18 10:56 34.734704 -120.570760 136 341ft 0kts
04-Oct-18 10:57 34.734642 -120.570698 160 341ft 0kts
04-Oct-18 10:58 34.732878 -120.570964 228 341ft 12kts
04-Oct-18 10:59 34.730493 -120.570271 135 347ft 14kts
04-Oct-18 11:00 34.727491 -120.566840 135 359ft 14kts
04-Oct-18 11:01 34.724391 -120.565184 185 370ft 13kts
04-Oct-18 11:02 34.723210 -120.565871 233 371ft 0kts
04-Oct-18 11:03 34.723210 -120.565871 233 371ft 0kts
04-Oct-18 11:04 34.722939 -120.567662 297 365ft 16kts
04-Oct-18 11:05 34.740460 -120.588105 315 882ft 132kts
04-Oct-18 11:06 34.751596 -120.625847 227 2625ft 152kts
04-Oct-18 11:07 34.722306 -120.605459 110 3996ft 188kts
04-Oct-18 11:08 34.702909 -120.547920 114 4890ft 207kts
04-Oct-18 11:09 34.681623 -120.490139 115 6139ft 200kts
04-Oct-18 11:10 34.660281 -120.433045 115 7749ft 189kts
04-Oct-18 11:11 34.636354 -120.369477 115 8017ft 226kts
04-Oct-18 11:12 34.611916 -120.304069 115 9681ft 206kts
04-Oct-18 11:13 34.588398 -120.241431 116 10994ft 218kts
04-Oct-18 11:14 34.560631 -120.168082 115 11002ft 254kts
04-Oct-18 11:15 34.531472 -120.088668 102 11000ft 258kts
04-Oct-18 11:16 34.525733 -120.004721 95 11000ft 253kts
04-Oct-18 11:17 34.520026 -119.920387 96 11000ft 252kts
04-Oct-18 11:18 34.514539 -119.840446 96 11001ft 252kts
04-Oct-18 11:19 34.506523 -119.764890 120 11001ft 250kts
04-Oct-18 11:20 34.469096 -119.695807 125 11001ft 251kts
04-Oct-18 11:21 34.430845 -119.625479 124 11001ft 252kts
04-Oct-18 11:22 34.392740 -119.555438 124 11001ft 252kts
04-Oct-18 11:23 34.354284 -119.484878 124 11001ft 252kts
04-Oct-18 11:24 34.316215 -119.415155 125 10997ft 252kts
04-Oct-18 11:25 34.278430 -119.346091 125 10988ft 251kts
04-Oct-18 11:26 34.247167 -119.289128 126 10785ft 243kts
04-Oct-18 11:27 34.205316 -119.212986 125 9847ft 240kts
04-Oct-18 11:28 34.167761 -119.144779 125 9055ft 249kts
04-Oct-18 11:29 34.130021 -119.076183 125 8994ft 245kts
04-Oct-18 11:30 34.105873 -119.014790 108 9000ft 245kts
04-Oct-18 11:31 34.088374 -118.940264 100 8800ft 246kts
04-Oct-18 11:32 34.074802 -118.851076 102 7915ft 244kts
04-Oct-18 11:33 34.064795 -118.789332 102 7294ft 240kts
04-Oct-18 11:34 34.052313 -118.712527 102 6507ft 237kts
04-Oct-18 11:35 34.037708 -118.623115 102 5626ft 233kts
04-Oct-18 11:36 34.027724 -118.562136 102 5599ft 215kts
04-Oct-18 11:37 34.006006 -118.497329 141 5005ft 216kts
04-Oct-18 11:38 33.962017 -118.453092 141 4996ft 202kts
04-Oct-18 11:39 33.917895 -118.409426 141 4288ft 219kts
04-Oct-18 11:40 33.872680 -118.365180 141 4000ft 207kts
04-Oct-18 11:41 33.864430 -118.310439 82 3945ft 205kts
04-Oct-18 11:42 33.871442 -118.245337 82 3165ft 194kts
04-Oct-18 11:43 33.877972 -118.185298 82 2984ft 179kts
04-Oct-18 11:44 33.883989 -118.130191 82 2979ft 169kts
04-Oct-18 11:45 33.889913 -118.076373 82 2972ft 161kts
04-Oct-18 11:46 33.911717 -118.065428 287 2980ft 109kts
04-Oct-18 11:47 33.918680 -118.101926 281 2976ft 115kts
04-Oct-18 11:48 33.928179 -118.139846 281 2775ft 125kts
04-Oct-18 11:49 33.929678 -118.180905 267 2282ft 122kts
04-Oct-18 11:50 33.927984 -118.220697 267 1787ft 121kts
04-Oct-18 11:51 33.926240 -118.260747 266 1208ft 125kts
04-Oct-18 11:52 33.924599 -118.296891 267 611ft 90kts
04-Oct-18 11:53 33.923237 -118.326375 267 127ft 89kts
04-Oct-18 11:54 33.922594 -118.339747 257 63ft 4kts
04-Oct-18 11:55 33.922326 -118.339952 179 63ft 0kts
04-Oct-18 11:56 33.922326 -118.339952 179 63ft 0kts
04-Oct-18 11:57 33.922323 -118.337602 86 61ft 15kts
04-Oct-18 11:58 33.922099 -118.336922 178 60ft 0kts
04-Oct-18 11:59 33.922099 -118.336922 178 60ft 0kts
04-Oct-18 12:00 33.922099 -118.336922 178 60ft 0kts
04-Oct-18 12:01 33.922099 -118.336922 178 60ft 0kts
04-Oct-18 12:02 33.922099 -118.336922 178 60ft 0kts
04-Oct-18 12:03 33.922099 -118.336922 178 60ft 0kts
04-Oct-18 12:04 33.922099 -118.336922 178 60ft 0kts
04-Oct-18 12:05 33.922099 -118.336922 178 60ft 0kts
04-Oct-18 12:06 33.922099 -118.336922 178 60ft 0kts

Navigation Log

Ident Type
Flight plan parsing failed, navigation log unavailable